sensor_id;sensor_type;location;lat;lon;timestamp;P1;durP1;ratioP1;P2;durP2;ratioP2
20739;SDS011;10530;49.968;19.844;2023-04-15T00:03:01;4.35;;;1.30;;
20739;SDS011;10530;49.968;19.844;2023-04-15T00:08:06;4.30;;;1.13;;
20739;SDS011;10530;49.968;19.844;2023-04-15T00:13:08;3.50;;;1.30;;
20739;SDS011;10530;49.968;19.844;2023-04-15T00:18:11;3.10;;;1.10;;
20739;SDS011;10530;49.968;19.844;2023-04-15T00:23:14;3.22;;;1.13;;
20739;SDS011;10530;49.968;19.844;2023-04-15T00:28:17;2.85;;;0.80;;
20739;SDS011;10530;49.968;19.844;2023-04-15T00:33:20;3.47;;;1.30;;
20739;SDS011;10530;49.968;19.844;2023-04-15T00:38:23;3.90;;;1.50;;
20739;SDS011;10530;49.968;19.844;2023-04-15T00:43:26;4.40;;;1.67;;
20739;SDS011;10530;49.968;19.844;2023-04-15T00:48:29;4.53;;;1.60;;
20739;SDS011;10530;49.968;19.844;2023-04-15T00:53:32;4.43;;;1.08;;
20739;SDS011;10530;49.968;19.844;2023-04-15T00:58:35;4.53;;;1.20;;
20739;SDS011;10530;49.968;19.844;2023-04-15T01:03:38;4.37;;;1.20;;
20739;SDS011;10530;49.968;19.844;2023-04-15T01:08:41;4.38;;;1.13;;
20739;SDS011;10530;49.968;19.844;2023-04-15T01:13:45;3.20;;;0.88;;
20739;SDS011;10530;49.968;19.844;2023-04-15T01:18:48;5.93;;;1.20;;
20739;SDS011;10530;49.968;19.844;2023-04-15T01:23:52;4.13;;;1.17;;
20739;SDS011;10530;49.968;19.844;2023-04-15T01:28:57;3.93;;;1.27;;
20739;SDS011;10530;49.968;19.844;2023-04-15T01:34:01;4.53;;;1.45;;
20739;SDS011;10530;49.968;19.844;2023-04-15T01:39:22;6.68;;;1.00;;
20739;SDS011;10530;49.968;19.844;2023-04-15T01:44:25;6.05;;;1.17;;
20739;SDS011;10530;49.968;19.844;2023-04-15T01:49:29;4.40;;;1.33;;
20739;SDS011;10530;49.968;19.844;2023-04-15T01:54:35;4.03;;;1.13;;
20739;SDS011;10530;49.968;19.844;2023-04-15T01:59:39;3.72;;;1.00;;
20739;SDS011;10530;49.968;19.844;2023-04-15T02:04:44;4.38;;;1.10;;
20739;SDS011;10530;49.968;19.844;2023-04-15T02:09:48;3.40;;;1.00;;
20739;SDS011;10530;49.968;19.844;2023-04-15T02:14:52;3.35;;;1.17;;
20739;SDS011;10530;49.968;19.844;2023-04-15T02:19:57;3.10;;;0.93;;
20739;SDS011;10530;49.968;19.844;2023-04-15T02:25:02;3.50;;;0.88;;
20739;SDS011;10530;49.968;19.844;2023-04-15T02:30:07;3.50;;;1.00;;
20739;SDS011;10530;49.968;19.844;2023-04-15T02:35:11;3.13;;;0.90;;
20739;SDS011;10530;49.968;19.844;2023-04-15T02:40:15;2.60;;;0.82;;
20739;SDS011;10530;49.968;19.844;2023-04-15T02:45:20;3.60;;;1.10;;
20739;SDS011;10530;49.968;19.844;2023-04-15T02:50:28;3.00;;;0.90;;
20739;SDS011;10530;49.968;19.844;2023-04-15T02:55:32;3.17;;;0.90;;
20739;SDS011;10530;49.968;19.844;2023-04-15T03:00:36;4.03;;;1.00;;
20739;SDS011;10530;49.968;19.844;2023-04-15T03:05:40;2.92;;;1.00;;
20739;SDS011;10530;49.968;19.844;2023-04-15T03:10:44;3.37;;;0.90;;
20739;SDS011;10530;49.968;19.844;2023-04-15T03:15:48;3.40;;;0.80;;
20739;SDS011;10530;49.968;19.844;2023-04-15T03:20:53;3.90;;;1.00;;
20739;SDS011;10530;49.968;19.844;2023-04-15T03:26:00;2.78;;;0.82;;
20739;SDS011;10530;49.968;19.844;2023-04-15T03:31:06;3.50;;;1.30;;
20739;SDS011;10530;49.968;19.844;2023-04-15T03:36:10;3.60;;;1.20;;
20739;SDS011;10530;49.968;19.844;2023-04-15T03:41:14;4.57;;;1.40;;
20739;SDS011;10530;49.968;19.844;2023-04-15T03:46:18;5.63;;;1.95;;
20739;SDS011;10530;49.968;19.844;2023-04-15T03:51:22;6.43;;;2.05;;
20739;SDS011;10530;49.968;19.844;2023-04-15T03:56:26;3.47;;;1.45;;
20739;SDS011;10530;49.968;19.844;2023-04-15T04:01:30;4.63;;;1.77;;
20739;SDS011;10530;49.968;19.844;2023-04-15T04:06:34;7.10;;;2.28;;
20739;SDS011;10530;49.968;19.844;2023-04-15T04:11:38;6.53;;;2.30;;
20739;SDS011;10530;49.968;19.844;2023-04-15T04:16:42;5.10;;;2.25;;
20739;SDS011;10530;49.968;19.844;2023-04-15T04:21:46;6.18;;;2.30;;
20739;SDS011;10530;49.968;19.844;2023-04-15T04:26:51;5.97;;;2.17;;
20739;SDS011;10530;49.968;19.844;2023-04-15T04:31:54;6.32;;;2.40;;
20739;SDS011;10530;49.968;19.844;2023-04-15T04:36:58;5.18;;;1.90;;
20739;SDS011;10530;49.968;19.844;2023-04-15T04:42:02;6.95;;;2.38;;
20739;SDS011;10530;49.968;19.844;2023-04-15T04:47:06;6.40;;;2.30;;
20739;SDS011;10530;49.968;19.844;2023-04-15T04:52:10;5.57;;;2.07;;
20739;SDS011;10530;49.968;19.844;2023-04-15T04:57:15;4.47;;;2.00;;
20739;SDS011;10530;49.968;19.844;2023-04-15T05:02:19;6.95;;;2.20;;
20739;SDS011;10530;49.968;19.844;2023-04-15T05:07:23;6.28;;;2.55;;
20739;SDS011;10530;49.968;19.844;2023-04-15T05:12:27;5.38;;;2.20;;
20739;SDS011;10530;49.968;19.844;2023-04-15T05:17:31;4.80;;;1.70;;
20739;SDS011;10530;49.968;19.844;2023-04-15T05:22:37;4.35;;;1.67;;
20739;SDS011;10530;49.968;19.844;2023-04-15T05:27:41;5.53;;;1.50;;
20739;SDS011;10530;49.968;19.844;2023-04-15T05:32:45;5.03;;;1.90;;
20739;SDS011;10530;49.968;19.844;2023-04-15T05:37:49;5.30;;;1.52;;
20739;SDS011;10530;49.968;19.844;2023-04-15T05:42:53;4.47;;;1.67;;
20739;SDS011;10530;49.968;19.844;2023-04-15T05:47:57;3.85;;;1.50;;
20739;SDS011;10530;49.968;19.844;2023-04-15T05:53:01;5.38;;;1.60;;
20739;SDS011;10530;49.968;19.844;2023-04-15T05:58:05;3.97;;;1.50;;
20739;SDS011;10530;49.968;19.844;2023-04-15T06:03:10;5.93;;;1.67;;
20739;SDS011;10530;49.968;19.844;2023-04-15T06:08:15;5.90;;;1.80;;
20739;SDS011;10530;49.968;19.844;2023-04-15T06:13:19;4.25;;;1.52;;
20739;SDS011;10530;49.968;19.844;2023-04-15T06:18:23;3.65;;;1.60;;
20739;SDS011;10530;49.968;19.844;2023-04-15T06:23:27;7.80;;;1.70;;
20739;SDS011;10530;49.968;19.844;2023-04-15T06:28:32;4.20;;;1.45;;
20739;SDS011;10530;49.968;19.844;2023-04-15T06:33:36;5.20;;;1.80;;
20739;SDS011;10530;49.968;19.844;2023-04-15T06:38:40;4.13;;;1.60;;
20739;SDS011;10530;49.968;19.844;2023-04-15T06:43:46;5.53;;;1.58;;
20739;SDS011;10530;49.968;19.844;2023-04-15T06:48:50;4.95;;;1.80;;
20739;SDS011;10530;49.968;19.844;2023-04-15T06:53:54;4.65;;;1.70;;
20739;SDS011;10530;49.968;19.844;2023-04-15T06:58:59;5.13;;;1.90;;
20739;SDS011;10530;49.968;19.844;2023-04-15T07:04:03;4.00;;;1.70;;
20739;SDS011;10530;49.968;19.844;2023-04-15T07:09:07;4.38;;;1.60;;
20739;SDS011;10530;49.968;19.844;2023-04-15T07:14:12;5.80;;;1.50;;
20739;SDS011;10530;49.968;19.844;2023-04-15T07:19:16;4.28;;;1.45;;
20739;SDS011;10530;49.968;19.844;2023-04-15T07:24:20;4.70;;;1.50;;
20739;SDS011;10530;49.968;19.844;2023-04-15T07:29:25;3.33;;;1.20;;
20739;SDS011;10530;49.968;19.844;2023-04-15T07:34:29;4.80;;;1.60;;
20739;SDS011;10530;49.968;19.844;2023-04-15T07:39:34;5.60;;;1.50;;
20739;SDS011;10530;49.968;19.844;2023-04-15T07:44:39;3.42;;;1.30;;
20739;SDS011;10530;49.968;19.844;2023-04-15T07:49:43;3.83;;;1.33;;
20739;SDS011;10530;49.968;19.844;2023-04-15T07:54:47;5.40;;;1.33;;
20739;SDS011;10530;49.968;19.844;2023-04-15T07:59:51;4.65;;;1.65;;
20739;SDS011;10530;49.968;19.844;2023-04-15T08:04:55;3.15;;;1.27;;
20739;SDS011;10530;49.968;19.844;2023-04-15T08:10:00;3.58;;;1.10;;
20739;SDS011;10530;49.968;19.844;2023-04-15T08:15:04;4.00;;;1.83;;
20739;SDS011;10530;49.968;19.844;2023-04-15T08:20:10;3.92;;;1.42;;
20739;SDS011;10530;49.968;19.844;2023-04-15T08:25:15;4.70;;;1.85;;
20739;SDS011;10530;49.968;19.844;2023-04-15T08:30:20;4.78;;;2.10;;
20739;SDS011;10530;49.968;19.844;2023-04-15T08:35:24;3.30;;;1.45;;
20739;SDS011;10530;49.968;19.844;2023-04-15T08:40:29;3.93;;;1.60;;
20739;SDS011;10530;49.968;19.844;2023-04-15T08:45:47;4.18;;;1.58;;
20739;SDS011;10530;49.968;19.844;2023-04-15T08:50:53;3.75;;;1.70;;
20739;SDS011;10530;49.968;19.844;2023-04-15T08:55:58;3.67;;;1.75;;
20739;SDS011;10530;49.968;19.844;2023-04-15T09:01:07;4.05;;;2.20;;
20739;SDS011;10530;49.968;19.844;2023-04-15T09:06:11;6.07;;;2.30;;
20739;SDS011;10530;49.968;19.844;2023-04-15T09:11:17;5.68;;;2.65;;
20739;SDS011;10530;49.968;19.844;2023-04-15T09:16:22;4.05;;;1.98;;
20739;SDS011;10530;49.968;19.844;2023-04-15T09:21:26;6.03;;;1.92;;
20739;SDS011;10530;49.968;19.844;2023-04-15T09:26:32;4.10;;;1.95;;
20739;SDS011;10530;49.968;19.844;2023-04-15T09:31:38;4.03;;;1.63;;
20739;SDS011;10530;49.968;19.844;2023-04-15T09:42:05;3.80;;;1.70;;
20739;SDS011;10530;49.968;19.844;2023-04-15T09:47:25;3.30;;;1.60;;
20739;SDS011;10530;49.968;19.844;2023-04-15T09:52:30;5.13;;;2.72;;
20739;SDS011;10530;49.968;19.844;2023-04-15T09:57:35;3.87;;;2.00;;
20739;SDS011;10530;49.968;19.844;2023-04-15T10:02:40;4.10;;;2.03;;
20739;SDS011;10530;49.968;19.844;2023-04-15T10:07:45;4.70;;;2.13;;
20739;SDS011;10530;49.968;19.844;2023-04-15T10:12:49;7.60;;;2.05;;
20739;SDS011;10530;49.968;19.844;2023-04-15T10:17:57;7.13;;;2.20;;
20739;SDS011;10530;49.968;19.844;2023-04-15T10:23:03;5.03;;;1.80;;
20739;SDS011;10530;49.968;19.844;2023-04-15T10:28:11;4.40;;;1.52;;
20739;SDS011;10530;49.968;19.844;2023-04-15T10:33:22;4.80;;;2.00;;
20739;SDS011;10530;49.968;19.844;2023-04-15T10:38:30;4.28;;;1.95;;
20739;SDS011;10530;49.968;19.844;2023-04-15T10:43:44;4.55;;;1.73;;
20739;SDS011;10530;49.968;19.844;2023-04-15T10:49:00;5.17;;;1.87;;
20739;SDS011;10530;49.968;19.844;2023-04-15T10:59:35;3.70;;;1.50;;
20739;SDS011;10530;49.968;19.844;2023-04-15T11:04:56;5.05;;;1.90;;
20739;SDS011;10530;49.968;19.844;2023-04-15T11:10:01;3.60;;;1.63;;
20739;SDS011;10530;49.968;19.844;2023-04-15T11:20:38;5.35;;;1.45;;
20739;SDS011;10530;49.968;19.844;2023-04-15T11:25:43;5.38;;;1.90;;
20739;SDS011;10530;49.968;19.844;2023-04-15T11:30:48;5.45;;;1.80;;
20739;SDS011;10530;49.968;19.844;2023-04-15T11:35:52;5.00;;;1.88;;
20739;SDS011;10530;49.968;19.844;2023-04-15T11:40:57;3.60;;;1.60;;
20739;SDS011;10530;49.968;19.844;2023-04-15T11:46:01;4.75;;;1.77;;
20739;SDS011;10530;49.968;19.844;2023-04-15T11:51:07;4.65;;;1.55;;
20739;SDS011;10530;49.968;19.844;2023-04-15T11:56:10;3.50;;;1.60;;
20739;SDS011;10530;49.968;19.844;2023-04-15T12:01:18;4.30;;;1.70;;
20739;SDS011;10530;49.968;19.844;2023-04-15T12:06:21;5.43;;;1.97;;
20739;SDS011;10530;49.968;19.844;2023-04-15T12:16:36;4.00;;;1.20;;
20739;SDS011;10530;49.968;19.844;2023-04-15T12:21:52;4.30;;;1.60;;
20739;SDS011;10530;49.968;19.844;2023-04-15T12:27:10;4.47;;;1.70;;
20739;SDS011;10530;49.968;19.844;2023-04-15T12:32:15;3.60;;;1.70;;
20739;SDS011;10530;49.968;19.844;2023-04-15T12:37:20;5.07;;;1.90;;
20739;SDS011;10530;49.968;19.844;2023-04-15T12:42:23;4.40;;;1.50;;
20739;SDS011;10530;49.968;19.844;2023-04-15T12:47:26;3.45;;;1.30;;
20739;SDS011;10530;49.968;19.844;2023-04-15T12:52:29;26.08;;;18.40;;
20739;SDS011;10530;49.968;19.844;2023-04-15T12:57:32;5.87;;;2.70;;
20739;SDS011;10530;49.968;19.844;2023-04-15T13:02:35;4.15;;;2.00;;
20739;SDS011;10530;49.968;19.844;2023-04-15T13:07:38;6.05;;;2.70;;
20739;SDS011;10530;49.968;19.844;2023-04-15T13:12:40;5.65;;;2.03;;
20739;SDS011;10530;49.968;19.844;2023-04-15T13:17:43;3.75;;;1.98;;
20739;SDS011;10530;49.968;19.844;2023-04-15T13:22:46;3.40;;;1.30;;
20739;SDS011;10530;49.968;19.844;2023-04-15T13:27:49;3.28;;;1.40;;
20739;SDS011;10530;49.968;19.844;2023-04-15T13:32:52;3.85;;;1.45;;
20739;SDS011;10530;49.968;19.844;2023-04-15T13:37:55;4.72;;;1.67;;
20739;SDS011;10530;49.968;19.844;2023-04-15T13:42:58;4.38;;;1.60;;
20739;SDS011;10530;49.968;19.844;2023-04-15T13:48:01;3.63;;;1.80;;
20739;SDS011;10530;49.968;19.844;2023-04-15T13:53:04;3.65;;;1.77;;
20739;SDS011;10530;49.968;19.844;2023-04-15T13:58:07;3.97;;;1.88;;
20739;SDS011;10530;49.968;19.844;2023-04-15T14:03:10;3.70;;;1.52;;
20739;SDS011;10530;49.968;19.844;2023-04-15T14:08:13;4.45;;;1.38;;
20739;SDS011;10530;49.968;19.844;2023-04-15T14:13:16;3.73;;;1.63;;
20739;SDS011;10530;49.968;19.844;2023-04-15T14:18:20;4.00;;;2.00;;
20739;SDS011;10530;49.968;19.844;2023-04-15T14:23:23;4.30;;;1.88;;
20739;SDS011;10530;49.968;19.844;2023-04-15T14:28:26;4.10;;;1.85;;
20739;SDS011;10530;49.968;19.844;2023-04-15T14:33:29;4.70;;;2.10;;
20739;SDS011;10530;49.968;19.844;2023-04-15T14:38:35;4.37;;;2.00;;
20739;SDS011;10530;49.968;19.844;2023-04-15T14:43:39;4.45;;;1.83;;
20739;SDS011;10530;49.968;19.844;2023-04-15T14:48:42;4.57;;;2.10;;
20739;SDS011;10530;49.968;19.844;2023-04-15T14:53:45;3.95;;;1.70;;
20739;SDS011;10530;49.968;19.844;2023-04-15T14:58:47;6.57;;;2.20;;
20739;SDS011;10530;49.968;19.844;2023-04-15T15:03:51;5.27;;;2.13;;
20739;SDS011;10530;49.968;19.844;2023-04-15T15:08:54;4.05;;;1.77;;
20739;SDS011;10530;49.968;19.844;2023-04-15T15:13:57;6.97;;;2.25;;
20739;SDS011;10530;49.968;19.844;2023-04-15T15:18:59;5.00;;;2.28;;
20739;SDS011;10530;49.968;19.844;2023-04-15T15:24:03;5.85;;;2.67;;
20739;SDS011;10530;49.968;19.844;2023-04-15T15:29:06;7.50;;;3.03;;
20739;SDS011;10530;49.968;19.844;2023-04-15T15:34:09;7.25;;;2.85;;
20739;SDS011;10530;49.968;19.844;2023-04-15T15:39:11;7.07;;;2.83;;
20739;SDS011;10530;49.968;19.844;2023-04-15T15:44:14;5.45;;;2.28;;
20739;SDS011;10530;49.968;19.844;2023-04-15T15:49:17;5.45;;;2.30;;
20739;SDS011;10530;49.968;19.844;2023-04-15T15:54:20;6.90;;;2.67;;
20739;SDS011;10530;49.968;19.844;2023-04-15T15:59:23;5.00;;;2.53;;
20739;SDS011;10530;49.968;19.844;2023-04-15T16:04:26;6.60;;;2.67;;
20739;SDS011;10530;49.968;19.844;2023-04-15T16:09:30;5.65;;;2.45;;
20739;SDS011;10530;49.968;19.844;2023-04-15T16:14:33;6.90;;;2.38;;
20739;SDS011;10530;49.968;19.844;2023-04-15T16:19:36;4.67;;;2.07;;
20739;SDS011;10530;49.968;19.844;2023-04-15T16:24:38;4.55;;;2.10;;
20739;SDS011;10530;49.968;19.844;2023-04-15T16:29:41;5.38;;;2.53;;
20739;SDS011;10530;49.968;19.844;2023-04-15T16:34:44;8.13;;;3.00;;
20739;SDS011;10530;49.968;19.844;2023-04-15T16:39:47;6.05;;;2.70;;
20739;SDS011;10530;49.968;19.844;2023-04-15T16:44:49;5.17;;;2.33;;
20739;SDS011;10530;49.968;19.844;2023-04-15T16:49:52;4.97;;;2.40;;
20739;SDS011;10530;49.968;19.844;2023-04-15T16:54:55;5.68;;;2.20;;
20739;SDS011;10530;49.968;19.844;2023-04-15T16:59:58;6.23;;;2.30;;
20739;SDS011;10530;49.968;19.844;2023-04-15T17:05:01;7.07;;;2.53;;
20739;SDS011;10530;49.968;19.844;2023-04-15T17:10:04;8.53;;;3.37;;
20739;SDS011;10530;49.968;19.844;2023-04-15T17:15:08;7.03;;;2.92;;
20739;SDS011;10530;49.968;19.844;2023-04-15T17:20:16;7.85;;;3.10;;
20739;SDS011;10530;49.968;19.844;2023-04-15T17:25:20;9.70;;;3.53;;
20739;SDS011;10530;49.968;19.844;2023-04-15T17:30:24;9.43;;;3.85;;
20739;SDS011;10530;49.968;19.844;2023-04-15T17:35:47;11.17;;;4.50;;
20739;SDS011;10530;49.968;19.844;2023-04-15T17:41:10;11.05;;;4.95;;
20739;SDS011;10530;49.968;19.844;2023-04-15T17:46:34;9.93;;;4.50;;
20739;SDS011;10530;49.968;19.844;2023-04-15T17:51:56;10.53;;;4.60;;
20739;SDS011;10530;49.968;19.844;2023-04-15T17:57:19;15.90;;;4.68;;
20739;SDS011;10530;49.968;19.844;2023-04-15T18:02:42;11.53;;;4.43;;
20739;SDS011;10530;49.968;19.844;2023-04-15T18:08:05;10.30;;;4.55;;
20739;SDS011;10530;49.968;19.844;2023-04-15T18:13:28;8.65;;;3.42;;
20739;SDS011;10530;49.968;19.844;2023-04-15T18:18:50;11.17;;;4.23;;
20739;SDS011;10530;49.968;19.844;2023-04-15T18:23:54;10.05;;;4.47;;
20739;SDS011;10530;49.968;19.844;2023-04-15T18:28:56;14.23;;;4.87;;
20739;SDS011;10530;49.968;19.844;2023-04-15T18:33:59;11.35;;;4.78;;
20739;SDS011;10530;49.968;19.844;2023-04-15T18:39:06;9.63;;;4.32;;
20739;SDS011;10530;49.968;19.844;2023-04-15T18:44:09;12.50;;;4.67;;
20739;SDS011;10530;49.968;19.844;2023-04-15T18:49:12;12.23;;;4.75;;
20739;SDS011;10530;49.968;19.844;2023-04-15T18:54:14;9.57;;;4.00;;
20739;SDS011;10530;49.968;19.844;2023-04-15T18:59:17;11.85;;;4.65;;
20739;SDS011;10530;49.968;19.844;2023-04-15T19:04:31;13.05;;;4.95;;
20739;SDS011;10530;49.968;19.844;2023-04-15T19:09:34;11.07;;;4.40;;
20739;SDS011;10530;49.968;19.844;2023-04-15T19:14:37;18.42;;;6.95;;
20739;SDS011;10530;49.968;19.844;2023-04-15T19:19:40;11.50;;;5.07;;
20739;SDS011;10530;49.968;19.844;2023-04-15T19:24:44;16.80;;;6.30;;
20739;SDS011;10530;49.968;19.844;2023-04-15T19:29:47;19.58;;;7.50;;
20739;SDS011;10530;49.968;19.844;2023-04-15T19:34:50;22.40;;;7.87;;
20739;SDS011;10530;49.968;19.844;2023-04-15T19:39:53;23.10;;;8.88;;
20739;SDS011;10530;49.968;19.844;2023-04-15T19:44:57;23.53;;;9.30;;
20739;SDS011;10530;49.968;19.844;2023-04-15T19:50:00;22.40;;;7.90;;
20739;SDS011;10530;49.968;19.844;2023-04-15T19:55:03;22.42;;;8.25;;
20739;SDS011;10530;49.968;19.844;2023-04-15T20:00:06;21.20;;;8.00;;
20739;SDS011;10530;49.968;19.844;2023-04-15T20:05:10;20.80;;;8.30;;
20739;SDS011;10530;49.968;19.844;2023-04-15T20:10:13;19.03;;;7.80;;
20739;SDS011;10530;49.968;19.844;2023-04-15T20:15:16;22.52;;;8.00;;
20739;SDS011;10530;49.968;19.844;2023-04-15T20:20:19;17.85;;;7.80;;
20739;SDS011;10530;49.968;19.844;2023-04-15T20:25:23;19.83;;;7.73;;
20739;SDS011;10530;49.968;19.844;2023-04-15T20:30:25;16.02;;;6.93;;
20739;SDS011;10530;49.968;19.844;2023-04-15T20:35:30;16.77;;;7.13;;
20739;SDS011;10530;49.968;19.844;2023-04-15T20:40:33;18.77;;;7.38;;
20739;SDS011;10530;49.968;19.844;2023-04-15T20:45:36;19.52;;;7.22;;
20739;SDS011;10530;49.968;19.844;2023-04-15T20:50:39;18.90;;;7.30;;
20739;SDS011;10530;49.968;19.844;2023-04-15T20:55:42;20.92;;;8.27;;
20739;SDS011;10530;49.968;19.844;2023-04-15T21:00:45;18.00;;;7.87;;
20739;SDS011;10530;49.968;19.844;2023-04-15T21:05:49;20.63;;;7.80;;
20739;SDS011;10530;49.968;19.844;2023-04-15T21:10:51;19.42;;;8.07;;
20739;SDS011;10530;49.968;19.844;2023-04-15T21:15:54;18.47;;;8.13;;
20739;SDS011;10530;49.968;19.844;2023-04-15T21:20:57;16.02;;;7.88;;
20739;SDS011;10530;49.968;19.844;2023-04-15T21:26:01;18.27;;;8.50;;
20739;SDS011;10530;49.968;19.844;2023-04-15T21:31:05;25.02;;;8.65;;
20739;SDS011;10530;49.968;19.844;2023-04-15T21:36:08;19.83;;;8.48;;
20739;SDS011;10530;49.968;19.844;2023-04-15T21:41:11;22.33;;;8.60;;
20739;SDS011;10530;49.968;19.844;2023-04-15T21:46:14;20.63;;;8.57;;
20739;SDS011;10530;49.968;19.844;2023-04-15T21:51:24;23.57;;;9.13;;
20739;SDS011;10530;49.968;19.844;2023-04-15T21:56:27;23.50;;;9.20;;
20739;SDS011;10530;49.968;19.844;2023-04-15T22:01:30;20.75;;;8.93;;
20739;SDS011;10530;49.968;19.844;2023-04-15T22:06:33;23.23;;;8.70;;
20739;SDS011;10530;49.968;19.844;2023-04-15T22:11:37;21.10;;;8.32;;
20739;SDS011;10530;49.968;19.844;2023-04-15T22:16:40;20.97;;;8.33;;
20739;SDS011;10530;49.968;19.844;2023-04-15T22:21:42;18.13;;;8.10;;
20739;SDS011;10530;49.968;19.844;2023-04-15T22:26:45;20.15;;;7.90;;
20739;SDS011;10530;49.968;19.844;2023-04-15T22:31:48;23.30;;;8.77;;
20739;SDS011;10530;49.968;19.844;2023-04-15T22:36:51;20.90;;;8.45;;
20739;SDS011;10530;49.968;19.844;2023-04-15T22:41:54;21.70;;;8.47;;
20739;SDS011;10530;49.968;19.844;2023-04-15T22:46:57;24.58;;;8.38;;
20739;SDS011;10530;49.968;19.844;2023-04-15T22:52:00;19.60;;;7.53;;
20739;SDS011;10530;49.968;19.844;2023-04-15T22:57:03;19.57;;;8.60;;
20739;SDS011;10530;49.968;19.844;2023-04-15T23:02:06;20.15;;;8.02;;
20739;SDS011;10530;49.968;19.844;2023-04-15T23:07:09;16.10;;;6.63;;
20739;SDS011;10530;49.968;19.844;2023-04-15T23:12:12;20.58;;;7.47;;
20739;SDS011;10530;49.968;19.844;2023-04-15T23:17:15;20.30;;;7.97;;
20739;SDS011;10530;49.968;19.844;2023-04-15T23:22:17;17.87;;;7.87;;
20739;SDS011;10530;49.968;19.844;2023-04-15T23:27:20;19.17;;;7.38;;
20739;SDS011;10530;49.968;19.844;2023-04-15T23:32:23;17.13;;;6.87;;
20739;SDS011;10530;49.968;19.844;2023-04-15T23:37:28;21.63;;;8.43;;
20739;SDS011;10530;49.968;19.844;2023-04-15T23:42:32;19.95;;;8.25;;
20739;SDS011;10530;49.968;19.844;2023-04-15T23:47:35;20.90;;;7.23;;
20739;SDS011;10530;49.968;19.844;2023-04-15T23:52:39;16.77;;;7.75;;
20739;SDS011;10530;49.968;19.844;2023-04-15T23:57:41;19.57;;;7.80;;
